Terminal Aerodrome Forecast
Issued by NWS

Home | Current Version | Previous Version | Text Only | Print | Product List | Glossary On
Versions: 1 2 3 4 5 6 7 8 9 10 11 12 13
714
FTUS46 KMTR 191722
TAFOAK
TAF
KOAK 191722Z 1918/2024 VRB04KT P6SM FEW010 BKN250
     FM192000 28005KT P6SM SCT250
     FM200300 VRB03KT P6SM BKN180
     FM200900 10004KT P6SM SCT050 BKN080 OVC120
     FM201300 13007KT P6SM SCT030 OVC060
     FM201800 14007KT P6SM FEW040 SCT070 BKN100
     FM202100 17005KT P6SM FEW040 BKN200=

USA.gov is the U.S. government's official web portal to all federal, state and local government web resources and services.